Time;durP1;ratioP1;P1;durP2;ratioP2;P2;SDS_P1;SDS_P2;PMS_P1;PMS_P2;Temp;Humidity;BMP_temperature;BMP_pressure;BME280_temperature;BME280_humidity;BME280_pressure;Samples;Min_cycle;Max_cycle;Signal;HPM_P1;HPM_P2
2022/08/17 00:00:44;;;;;;;33.03;26.98;;;21.40;99.90;;;;;;5034436;28;20120;-79
2022/08/17 00:03:13;;;;;;;29.17;26.10;;;21.40;99.90;;;;;;5034283;28;20045;-79
2022/08/17 00:05:53;;;;;;;32.20;27.17;;;21.40;99.90;;;;;;5033823;28;20482;-79
2022/08/17 00:08:25;;;;;;;33.70;26.83;;;21.40;99.90;;;;;;5034547;28;20056;-80
2022/08/17 00:10:52;;;;;;;31.15;27.05;;;21.40;99.90;;;;;;5034460;28;20123;-79
2022/08/17 00:13:38;;;;;;;33.03;27.35;;;21.30;99.90;;;;;;5035010;28;20045;-79
2022/08/17 00:16:08;;;;;;;31.65;26.92;;;21.30;99.90;;;;;;5031174;28;20086;-80
2022/08/17 00:18:33;;;;;;;34.22;27.67;;;21.30;99.90;;;;;;5035688;28;20041;-79
2022/08/17 00:21:00;;;;;;;34.22;27.80;;;21.20;99.90;;;;;;5034617;28;20043;-79
2022/08/17 00:23:26;;;;;;;32.22;27.52;;;21.30;99.90;;;;;;5033572;28;20497;-80
2022/08/17 00:25:53;;;;;;;33.72;27.52;;;21.20;99.90;;;;;;5034557;28;20049;-80
2022/08/17 00:28:19;;;;;;;31.63;27.33;;;21.20;99.90;;;;;;5034761;28;20124;-80
2022/08/17 00:30:47;;;;;;;30.50;26.55;;;21.20;99.90;;;;;;5034632;28;20124;-79
2022/08/17 00:33:18;;;;;;;35.00;27.77;;;21.20;99.90;;;;;;5034658;28;20121;-79
2022/08/17 00:35:45;;;;;;;31.42;27.52;;;21.20;99.90;;;;;;5034390;28;20120;-79
2022/08/17 00:38:11;;;;;;;37.65;29.80;;;21.10;99.90;;;;;;5029838;28;20038;-80
2022/08/17 00:40:44;;;;;;;37.38;29.67;;;21.20;99.90;;;;;;5033665;28;20048;-79
2022/08/17 00:43:19;;;;;;;36.05;30.35;;;21.10;99.90;;;;;;5033694;28;20049;-79
2022/08/17 00:45:45;;;;;;;34.67;29.23;;;21.10;99.90;;;;;;5032659;28;20087;-81
2022/08/17 00:48:12;;;;;;;37.65;29.90;;;21.00;99.90;;;;;;5034297;28;20144;-81
2022/08/17 00:50:43;;;;;;;38.90;29.30;;;21.00;99.90;;;;;;5034423;28;20050;-80
2022/08/17 00:53:10;;;;;;;35.63;29.15;;;21.00;99.90;;;;;;5034831;28;20119;-80
2022/08/17 00:55:36;;;;;;;38.63;29.58;;;21.00;99.90;;;;;;5033033;28;20124;-81
2022/08/17 00:58:04;;;;;;;37.70;29.17;;;21.00;99.90;;;;;;5034169;28;20573;-80
2022/08/17 01:00:39;;;;;;;36.53;29.00;;;20.90;99.90;;;;;;5032364;28;20045;-80
2022/08/17 01:03:13;;;;;;;41.22;31.00;;;20.90;99.90;;;;;;5034247;28;20524;-80
2022/08/17 01:05:40;;;;;;;36.22;30.38;;;20.90;99.90;;;;;;5033990;28;20458;-81
2022/08/17 01:08:14;;;;;;;37.00;30.25;;;20.90;99.90;;;;;;5033001;28;20453;-81
2022/08/17 01:10:43;;;;;;;35.17;29.48;;;20.80;99.90;;;;;;5033619;28;20044;-80
2022/08/17 01:13:10;;;;;;;39.70;29.83;;;20.90;99.90;;;;;;5031139;28;20120;-80
2022/08/17 01:15:38;;;;;;;38.03;31.50;;;20.80;99.90;;;;;;5032972;28;20378;-80
2022/08/17 01:18:07;;;;;;;39.33;30.30;;;20.80;99.90;;;;;;5032129;28;20053;-80
2022/08/17 01:20:33;;;;;;;36.88;28.90;;;20.70;99.90;;;;;;5033057;28;20084;-81
2022/08/17 01:23:00;;;;;;;38.95;30.50;;;20.70;99.90;;;;;;5034291;28;20089;-81
2022/08/17 01:25:28;;;;;;;42.38;30.48;;;20.80;99.90;;;;;;5033279;28;20056;-80
2022/08/17 01:27:54;;;;;;;37.30;30.50;;;20.70;99.90;;;;;;5031924;28;20056;-81
2022/08/17 01:30:20;;;;;;;41.10;31.20;;;20.70;99.90;;;;;;5027813;28;20041;-81
2022/08/17 01:32:46;;;;;;;37.90;29.77;;;20.80;99.90;;;;;;5033486;28;20053;-80
2022/08/17 01:35:12;;;;;;;37.22;29.95;;;20.70;99.90;;;;;;5033746;28;20041;-82
2022/08/17 01:37:40;;;;;;;37.75;30.42;;;20.70;99.90;;;;;;5028411;28;20080;-81
2022/08/17 01:40:33;;;;;;;38.75;30.35;;;20.70;99.90;;;;;;5019641;28;20033;-80
2022/08/17 01:43:13;;;;;;;35.45;29.30;;;20.60;99.90;;;;;;5025625;28;20448;-80
2022/08/17 01:45:44;;;;;;;35.17;28.80;;;20.60;99.90;;;;;;5042804;28;20117;-81
2022/08/17 01:48:11;;;;;;;37.03;29.88;;;20.60;99.90;;;;;;5032439;28;20049;-80
2022/08/17 01:50:40;;;;;;;33.60;28.52;;;20.60;99.90;;;;;;5032223;28;20041;-81
2022/08/17 01:53:11;;;;;;;37.10;29.90;;;20.50;99.90;;;;;;5032043;28;20103;-81
2022/08/17 01:55:49;;;;;;;37.40;29.48;;;20.50;99.90;;;;;;5031269;28;20507;-80
2022/08/17 01:58:15;;;;;;;42.47;30.60;;;20.50;99.90;;;;;;5015027;28;20091;-80
2022/08/17 02:00:42;;;;;;;34.60;28.40;;;20.50;99.90;;;;;;5033353;28;20045;-81
2022/08/17 02:03:09;;;;;;;36.35;28.50;;;20.70;99.90;;;;;;5032571;28;20513;-81
2022/08/17 02:05:35;;;;;;;40.15;29.10;;;20.50;99.90;;;;;;5036750;28;20390;-81
2022/08/17 02:08:01;;;;;;;39.13;30.17;;;20.50;99.90;;;;;;5031966;28;20045;-80
2022/08/17 02:10:28;;;;;;;38.75;29.85;;;20.50;99.90;;;;;;5031331;28;20057;-80
2022/08/17 02:12:54;;;;;;;44.75;29.60;;;20.40;99.90;;;;;;5031555;28;20527;-80
2022/08/17 02:15:21;;;;;;;38.20;28.85;;;20.50;99.90;;;;;;5032581;28;20431;-81
2022/08/17 02:17:47;;;;;;;37.92;30.63;;;20.40;99.90;;;;;;5032306;28;20076;-81
2022/08/17 02:20:13;;;;;;;38.95;28.63;;;20.40;99.90;;;;;;5030704;28;20124;-81
2022/08/17 02:22:42;;;;;;;36.65;27.70;;;20.40;99.90;;;;;;5026921;28;20042;-80
2022/08/17 02:25:10;;;;;;;37.67;28.42;;;20.40;99.90;;;;;;5031149;28;20125;-81
2022/08/17 02:27:37;;;;;;;35.72;28.00;;;20.40;99.90;;;;;;5031470;28;20124;-81
2022/08/17 02:30:07;;;;;;;36.53;27.77;;;20.40;99.90;;;;;;5031541;28;20033;-80
2022/08/17 02:32:33;;;;;;;35.63;28.55;;;20.30;99.90;;;;;;5032337;28;20055;-81
2022/08/17 02:34:59;;;;;;;32.80;27.70;;;20.30;99.90;;;;;;5032392;28;20466;-80
2022/08/17 02:37:27;;;;;;;35.30;27.50;;;20.30;99.90;;;;;;5032553;28;20038;-81
2022/08/17 02:39:53;;;;;;;37.42;29.13;;;20.20;99.90;;;;;;5033004;28;20489;-81
2022/08/17 02:42:32;;;;;;;35.55;27.65;;;20.30;99.90;;;;;;5032388;28;20501;-81
2022/08/17 02:45:00;;;;;;;34.25;26.88;;;20.30;99.90;;;;;;5031707;28;20048;-81
2022/08/17 02:47:25;;;;;;;48.55;27.60;;;20.30;99.90;;;;;;5030753;28;20104;-80
2022/08/17 02:49:52;;;;;;;41.53;25.83;;;20.30;99.90;;;;;;5033315;28;20077;-80
2022/08/17 02:52:18;;;;;;;34.25;25.00;;;20.20;99.90;;;;;;5031076;28;20369;-80
2022/08/17 02:54:44;;;;;;;31.85;25.02;;;20.50;99.90;;;;;;5031624;28;20037;-81
2022/08/17 02:57:09;;;;;;;50.72;27.10;;;20.10;99.90;;;;;;5030248;28;20053;-80
2022/08/17 02:59:36;;;;;;;40.42;25.75;;;20.10;99.90;;;;;;5031217;28;20037;-81
2022/08/17 03:02:03;;;;;;;31.42;25.67;;;20.10;99.90;;;;;;5030936;28;20370;-80
2022/08/17 03:04:29;;;;;;;31.10;24.75;;;20.00;99.90;;;;;;5032532;28;20044;-81
2022/08/17 03:06:55;;;;;;;32.05;25.48;;;20.00;99.90;;;;;;5029025;28;20079;-80
2022/08/17 03:09:20;;;;;;;33.28;24.67;;;20.00;99.90;;;;;;5030593;28;20037;-81
2022/08/17 03:11:46;;;;;;;36.80;26.63;;;20.00;99.90;;;;;;5040903;28;20504;-81
2022/08/17 03:14:12;;;;;;;38.58;26.10;;;20.00;99.90;;;;;;5032303;28;20026;-80
2022/08/17 03:16:37;;;;;;;36.88;25.15;;;20.00;99.90;;;;;;5031527;28;20485;-80
2022/08/17 03:19:03;;;;;;;34.60;25.33;;;20.00;99.90;;;;;;5031823;28;20047;-81
2022/08/17 03:21:29;;;;;;;41.63;26.88;;;20.00;99.90;;;;;;5030900;28;20076;-81
2022/08/17 03:23:54;;;;;;;39.47;27.33;;;20.00;99.90;;;;;;5029608;28;20053;-81
2022/08/17 03:26:20;;;;;;;37.55;26.77;;;20.00;99.90;;;;;;5029957;28;20145;-80
2022/08/17 03:28:45;;;;;;;39.70;28.67;;;20.00;99.90;;;;;;5032243;28;20073;-81
2022/08/17 03:31:11;;;;;;;37.53;28.13;;;20.20;99.90;;;;;;5029296;28;20060;-80
2022/08/17 03:33:37;;;;;;;37.75;27.70;;;20.00;99.90;;;;;;5032145;28;20037;-81
2022/08/17 03:36:03;;;;;;;33.20;26.15;;;20.00;99.90;;;;;;5030864;28;20096;-81
2022/08/17 03:38:28;;;;;;;36.45;27.92;;;20.00;99.90;;;;;;5032505;28;20042;-80
2022/08/17 03:40:54;;;;;;;38.25;29.48;;;20.00;99.90;;;;;;5028201;28;21331;-80
2022/08/17 03:43:21;;;;;;;38.03;28.70;;;20.00;99.90;;;;;;5027319;28;20042;-81
2022/08/17 03:57:04;;;;;;;38.90;28.23;;;19.90;99.90;;;;;;5038096;28;20045;-80
2022/08/17 03:59:31;;;;;;;33.55;27.13;;;19.90;99.90;;;;;;5034930;28;20103;-80
2022/08/17 04:02:07;;;;;;;37.85;28.42;;;19.90;99.90;;;;;;5033427;28;20067;-81
2022/08/17 04:04:34;;;;;;;35.53;27.35;;;19.90;99.90;;;;;;5035582;28;20401;-80
2022/08/17 04:07:00;;;;;;;36.88;28.15;;;19.90;99.90;;;;;;5035241;28;20045;-80
2022/08/17 04:09:26;;;;;;;37.05;27.75;;;20.00;99.90;;;;;;5035336;28;20034;-81
2022/08/17 04:11:52;;;;;;;33.75;26.98;;;19.80;99.90;;;;;;5034255;28;20037;-80
2022/08/17 04:14:17;;;;;;;36.80;27.10;;;19.90;99.90;;;;;;5034108;28;20116;-80
2022/08/17 04:16:43;;;;;;;35.45;28.38;;;19.80;99.90;;;;;;5034737;28;20532;-80
2022/08/17 04:19:09;;;;;;;36.05;26.70;;;19.80;99.90;;;;;;5037273;28;20049;-80
2022/08/17 04:21:34;;;;;;;34.70;27.35;;;19.80;99.90;;;;;;5033178;28;20085;-82
2022/08/17 04:24:00;;;;;;;33.75;27.13;;;19.70;99.90;;;;;;5033648;28;20095;-80
2022/08/17 04:26:27;;;;;;;34.17;27.27;;;19.70;99.90;;;;;;5032492;28;20047;-81
2022/08/17 04:28:53;;;;;;;33.47;26.98;;;19.80;99.90;;;;;;5034787;28;20049;-80
2022/08/17 04:31:19;;;;;;;37.50;28.20;;;19.70;99.90;;;;;;5033653;28;20556;-81
2022/08/17 04:33:45;;;;;;;38.80;27.95;;;19.70;99.90;;;;;;5034573;28;20116;-80
2022/08/17 04:36:14;;;;;;;35.13;26.25;;;19.70;99.90;;;;;;5034366;28;20555;-80
2022/08/17 04:38:41;;;;;;;39.30;27.73;;;19.70;99.90;;;;;;5033119;28;20499;-81
2022/08/17 04:43:57;;;;;;;32.05;25.92;;;19.70;99.90;;;;;;5040516;28;20144;-80
2022/08/17 04:46:31;;;;;;;33.28;24.88;;;19.80;99.90;;;;;;5037952;28;20393;-81
2022/08/17 04:48:58;;;;;;;32.33;25.00;;;19.80;99.90;;;;;;5030577;28;20139;-80
2022/08/17 04:51:34;;;;;;;36.05;25.20;;;19.80;99.90;;;;;;5032681;28;20061;-81
2022/08/17 04:54:15;;;;;;;31.05;24.13;;;19.80;99.90;;;;;;5030389;28;20041;-81
2022/08/17 04:56:41;;;;;;;33.97;24.67;;;19.80;99.90;;;;;;5033864;28;20041;-80
2022/08/17 04:59:10;;;;;;;31.50;24.38;;;19.80;99.90;;;;;;5033513;28;20045;-80
2022/08/17 05:01:38;;;;;;;29.63;23.65;;;19.80;99.90;;;;;;5034247;28;20041;-80
2022/08/17 05:04:06;;;;;;;28.90;24.67;;;19.80;99.90;;;;;;5022907;28;20516;-80
2022/08/17 05:06:32;;;;;;;30.80;25.00;;;20.00;99.90;;;;;;5037511;28;20095;-80
2022/08/17 05:08:59;;;;;;;29.95;25.42;;;19.90;99.90;;;;;;5037355;28;20048;-80
2022/08/17 05:11:26;;;;;;;30.95;24.90;;;19.90;99.90;;;;;;5031746;28;20075;-80
2022/08/17 05:13:55;;;;;;;33.05;25.38;;;19.90;99.90;;;;;;5033902;28;20045;-81
2022/08/17 05:16:22;;;;;;;34.03;26.00;;;19.90;99.90;;;;;;5027787;28;20107;-89
2022/08/17 05:18:47;;;;;;;35.72;27.30;;;19.90;99.90;;;;;;5040028;28;20053;-89
2022/08/17 05:21:14;;;;;;;32.65;26.17;;;19.90;99.90;;;;;;5036459;28;20044;-90
2022/08/17 05:23:40;;;;;;;35.55;27.67;;;19.90;99.90;;;;;;5040565;28;20115;-89
2022/08/17 05:26:07;;;;;;;37.40;28.52;;;20.00;99.90;;;;;;5030485;28;20092;-89
2022/08/17 05:28:32;;;;;;;39.38;28.90;;;20.00;99.90;;;;;;5035044;28;20415;-89
2022/08/17 05:31:02;;;;;;;31.33;26.83;;;20.00;99.90;;;;;;5032708;28;20041;-89
2022/08/17 05:33:35;;;;;;;33.72;27.63;;;20.10;99.90;;;;;;5028270;28;20065;-89
2022/08/17 05:36:03;;;;;;;35.47;28.00;;;20.10;99.90;;;;;;5033936;28;20397;-90
2022/08/17 05:38:29;;;;;;;33.33;26.98;;;20.10;99.90;;;;;;5038080;28;20127;-89
2022/08/17 05:40:56;;;;;;;36.53;28.60;;;20.10;99.90;;;;;;5033777;28;20038;-89
2022/08/17 05:43:25;;;;;;;34.65;27.23;;;20.10;99.90;;;;;;5034600;28;20069;-90
2022/08/17 05:46:19;;;;;;;34.85;26.83;;;20.20;99.90;;;;;;5034897;28;20051;-89
2022/08/17 05:49:00;;;;;;;32.10;26.42;;;20.20;99.90;;;;;;5033065;28;20053;-90
2022/08/17 05:51:44;;;;;;;30.77;25.45;;;20.20;99.90;;;;;;5034433;28;20534;-89
2022/08/17 05:54:41;;;;;;;27.38;24.40;;;20.20;99.90;;;;;;5028201;28;20064;-89
2022/08/17 05:57:13;;;;;;;33.85;27.10;;;20.30;99.90;;;;;;5034044;28;20037;-89
2022/08/17 06:00:11;;;;;;;34.83;27.02;;;20.30;99.90;;;;;;5033128;28;20056;-89
2022/08/17 06:02:55;;;;;;;32.85;26.80;;;20.30;99.90;;;;;;5033739;28;20053;-88
2022/08/17 06:05:39;;;;;;;38.15;30.15;;;20.40;99.90;;;;;;5032977;28;20049;-89
2022/08/17 06:08:34;;;;;;;37.03;28.20;;;20.40;99.90;;;;;;5032428;28;20038;-89
2022/08/17 06:11:14;;;;;;;39.70;30.00;;;20.40;99.90;;;;;;5031991;28;20114;-89
2022/08/17 06:13:58;;;;;;;41.60;30.98;;;20.40;99.90;;;;;;5027523;28;20080;-89
2022/08/17 06:16:30;;;;;;;42.92;31.70;;;20.40;99.90;;;;;;5030332;28;20152;-89
2022/08/17 06:19:25;;;;;;;41.05;31.38;;;20.40;99.90;;;;;;5030662;28;20095;-90
2022/08/17 06:21:53;;;;;;;38.10;29.48;;;20.40;99.90;;;;;;4967348;28;20068;-89
2022/08/17 06:24:47;;;;;;;43.00;31.48;;;20.40;99.90;;;;;;5033957;28;20037;-89
2022/08/17 06:27:36;;;;;;;39.03;29.33;;;20.40;99.90;;;;;;5031759;28;20042;-89
2022/08/17 06:30:12;;;;;;;41.25;32.15;;;20.40;99.90;;;;;;5031921;28;20113;-89
2022/08/17 06:32:42;;;;;;;40.20;31.70;;;20.50;99.90;;;;;;5030304;28;20045;-88
2022/08/17 06:35:11;;;;;;;40.22;33.15;;;20.50;99.90;;;;;;5036613;28;20037;-89
2022/08/17 06:38:10;;;;;;;40.80;32.03;;;20.50;99.90;;;;;;5033106;28;20391;-89
2022/08/17 06:40:36;;;;;;;41.28;31.85;;;20.60;99.90;;;;;;5019388;28;20049;-89
2022/08/17 06:43:48;;;;;;;47.60;36.10;;;20.60;99.90;;;;;;5032898;28;20057;-89
2022/08/17 06:46:34;;;;;;;45.30;33.58;;;20.60;99.90;;;;;;5011139;28;20045;-89
2022/08/17 06:49:14;;;;;;;44.78;35.47;;;20.60;99.90;;;;;;5035933;28;20060;-89
2022/08/17 06:51:47;;;;;;;44.22;33.55;;;20.60;99.90;;;;;;5032102;28;20045;-89
2022/08/17 06:54:34;;;;;;;42.72;34.13;;;20.60;99.90;;;;;;5033084;28;20121;-89
2022/08/17 06:57:13;;;;;;;44.80;33.40;;;20.60;99.90;;;;;;5032316;28;20397;-89
2022/08/17 07:00:09;;;;;;;39.63;32.55;;;20.70;99.90;;;;;;5030150;28;20045;-89
2022/08/17 07:02:49;;;;;;;42.08;32.90;;;20.70;99.90;;;;;;5025120;28;20044;-84
2022/08/17 07:05:19;;;;;;;44.03;32.90;;;20.80;99.90;;;;;;5033380;28;20043;-88
2022/08/17 07:08:02;;;;;;;49.47;36.95;;;20.80;99.90;;;;;;5033272;28;20563;-88
2022/08/17 07:10:36;;;;;;;48.15;37.47;;;20.80;99.90;;;;;;5033445;28;20049;-88
2022/08/17 07:13:20;;;;;;;44.10;33.80;;;20.80;99.90;;;;;;5033099;28;20081;-88
2022/08/17 07:15:48;;;;;;;46.92;36.17;;;20.80;99.90;;;;;;5033159;28;20371;-87
2022/08/17 07:18:14;;;;;;;49.53;37.85;;;20.90;99.90;;;;;;5038971;28;20037;-89
2022/08/17 07:20:45;;;;;;;46.22;35.58;;;20.90;99.90;;;;;;5034490;28;20485;-85
2022/08/17 07:23:33;;;;;;;43.03;35.50;;;20.90;99.90;;;;;;5035494;28;20080;-85
2022/08/17 07:26:06;;;;;;;44.53;34.15;;;20.90;99.90;;;;;;5036123;28;20072;-86
2022/08/17 07:28:33;;;;;;;44.13;34.38;;;21.00;99.90;;;;;;5037141;28;20077;-86
2022/08/17 07:30:59;;;;;;;42.17;34.10;;;21.10;99.90;;;;;;5035541;28;20379;-85
2022/08/17 07:33:27;;;;;;;44.10;35.05;;;21.10;99.90;;;;;;5032541;28;20052;-83
2022/08/17 07:35:56;;;;;;;46.63;35.10;;;21.20;99.90;;;;;;5033569;28;20085;-83
2022/08/17 07:38:26;;;;;;;42.15;33.95;;;21.20;99.90;;;;;;5033856;28;20131;-83
2022/08/17 07:41:01;;;;;;;44.40;36.75;;;21.20;99.90;;;;;;5031961;28;20132;-86
2022/08/17 07:43:31;;;;;;;46.83;37.65;;;21.20;99.90;;;;;;5030772;28;20132;-91
2022/08/17 07:49:02;;;;;;;49.30;38.90;;;21.30;99.90;;;;;;5030347;28;20045;-85
2022/08/17 07:51:32;;;;;;;48.90;38.63;;;21.30;99.90;;;;;;5035612;28;20574;-85
2022/08/17 07:54:02;;;;;;;55.92;41.95;;;21.30;99.90;;;;;;5035306;28;20512;-85
2022/08/17 07:56:45;;;;;;;57.42;43.03;;;21.40;99.90;;;;;;5034743;28;20045;-85
2022/08/17 07:59:24;;;;;;;57.22;43.35;;;21.50;99.90;;;;;;5017944;28;20564;-85
2022/08/17 08:01:56;;;;;;;60.38;45.38;;;21.50;99.90;;;;;;5035806;28;20061;-85
2022/08/17 08:04:49;;;;;;;58.58;44.85;;;21.60;99.90;;;;;;5034515;28;20124;-86
2022/08/17 08:07:15;;;;;;;62.35;44.47;;;21.80;99.90;;;;;;5034761;28;20498;-85
2022/08/17 08:09:44;;;;;;;52.88;41.13;;;21.90;99.90;;;;;;5035533;28;20049;-84
2022/08/17 08:12:33;;;;;;;56.65;42.35;;;22.00;99.90;;;;;;5034878;28;20045;-85
2022/08/17 08:15:11;;;;;;;53.17;41.17;;;22.20;99.90;;;;;;5033428;28;20152;-84
2022/08/17 08:17:49;;;;;;;52.80;39.58;;;22.30;99.90;;;;;;5032844;28;20099;-85
2022/08/17 08:20:15;;;;;;;51.28;39.42;;;22.50;99.90;;;;;;5029391;28;20086;-84
2022/08/17 08:22:40;;;;;;;50.45;37.75;;;22.60;99.90;;;;;;5033983;28;20100;-87
2022/08/17 08:25:23;;;;;;;48.75;37.22;;;22.70;99.90;;;;;;5034429;28;20064;-88
2022/08/17 08:27:54;;;;;;;48.22;37.75;;;22.80;99.90;;;;;;5032660;28;20635;-86
2022/08/17 08:30:21;;;;;;;50.08;37.90;;;22.90;99.90;;;;;;5031696;28;20034;-87
2022/08/17 08:32:52;;;;;;;45.53;36.78;;;23.10;99.90;;;;;;5031684;28;20057;-85
2022/08/17 08:35:32;;;;;;;42.33;34.65;;;23.20;99.90;;;;;;5025157;28;20084;-86
2022/08/17 08:38:19;;;;;;;37.45;30.85;;;23.20;99.90;;;;;;5031984;28;20551;-85
2022/08/17 08:40:59;;;;;;;40.72;34.42;;;23.30;99.90;;;;;;5026104;28;20081;-86
2022/08/17 08:43:39;;;;;;;38.60;32.85;;;23.30;99.90;;;;;;5033454;28;20041;-86
2022/08/17 08:46:29;;;;;;;37.92;32.75;;;23.30;99.90;;;;;;5034452;28;20045;-86
2022/08/17 08:49:19;;;;;;;33.33;27.33;;;23.30;99.90;;;;;;4995394;28;20524;-86
2022/08/17 08:51:56;;;;;;;34.83;29.45;;;23.30;99.90;;;;;;4995021;28;20090;-86
2022/08/17 08:54:41;;;;;;;35.30;30.35;;;23.30;99.90;;;;;;4994685;28;20042;-86
2022/08/17 08:57:17;;;;;;;30.88;27.02;;;23.30;99.90;;;;;;4995083;28;20054;-86
2022/08/17 09:00:03;;;;;;;34.72;30.30;;;23.30;99.90;;;;;;4995516;28;20383;-86
2022/08/17 09:02:55;;;;;;;35.67;30.77;;;23.30;99.90;;;;;;4974503;28;20047;-86
2022/08/17 09:05:33;;;;;;;34.47;28.80;;;23.30;99.90;;;;;;4990910;28;20041;-86
2022/08/17 09:08:35;;;;;;;31.90;28.38;;;23.40;99.90;;;;;;4993590;28;20038;-88
2022/08/17 09:11:18;;;;;;;32.30;26.70;;;23.40;99.90;;;;;;4990205;28;20046;-86
2022/08/17 09:14:01;;;;;;;31.50;27.35;;;23.50;99.90;;;;;;4992982;28;20372;-86
2022/08/17 09:16:35;;;;;;;31.60;27.20;;;23.50;99.90;;;;;;4991677;28;20077;-86
2022/08/17 09:19:15;;;;;;;29.30;26.17;;;23.50;99.90;;;;;;4994348;28;20045;-86
2022/08/17 09:21:53;;;;;;;30.25;25.08;;;23.50;99.90;;;;;;4990248;28;20058;-86
2022/08/17 09:24:32;;;;;;;31.55;27.27;;;23.50;99.90;;;;;;4993472;28;20058;-86
2022/08/17 09:27:02;;;;;;;31.83;27.02;;;23.50;99.90;;;;;;4994318;28;20166;-86
2022/08/17 09:29:38;;;;;;;27.75;24.13;;;23.70;99.90;;;;;;4994029;28;20053;-86
2022/08/17 09:32:16;;;;;;;28.08;23.02;;;23.80;99.90;;;;;;4993187;28;20139;-86
2022/08/17 09:34:55;;;;;;;28.45;23.10;;;24.00;99.90;;;;;;4993485;28;20046;-86
2022/08/17 09:37:36;;;;;;;25.13;21.15;;;24.40;99.90;;;;;;4990876;28;20121;-84
2022/08/17 09:40:08;;;;;;;23.13;20.45;;;24.90;99.90;;;;;;4989127;28;20406;-83
2022/08/17 09:43:07;;;;;;;26.52;21.70;;;25.40;99.90;;;;;;4985108;28;20046;-84
2022/08/17 09:45:49;;;;;;;22.52;20.15;;;25.80;99.90;;;;;;4992786;28;20795;-85
2022/08/17 09:48:27;;;;;;;25.35;21.17;;;26.00;99.90;;;;;;5024071;28;20057;-87
2022/08/17 09:51:17;;;;;;;26.67;23.63;;;25.90;99.90;;;;;;5032044;28;20138;-87
2022/08/17 09:53:42;;;;;;;21.48;19.27;;;25.70;99.90;;;;;;5031694;28;20033;-85
2022/08/17 09:56:27;;;;;;;30.10;26.40;;;25.60;99.90;;;;;;5030701;28;20045;-85
2022/08/17 09:59:02;;;;;;;30.17;26.90;;;25.50;99.90;;;;;;5032080;28;20059;-82
2022/08/17 10:01:39;;;;;;;;;;;25.40;99.90;;;;;;5022844;28;20107;-83
2022/08/17 10:04:19;;;;;;;29.90;26.77;;;25.30;99.90;;;;;;5031800;28;19932;-83
2022/08/17 10:06:57;;;;;;;29.98;25.98;;;25.20;99.90;;;;;;5033031;28;20065;-82
2022/08/17 10:09:38;;;;;;;27.73;24.88;;;25.10;99.90;;;;;;5032876;28;20501;-82
2022/08/17 10:12:26;;;;;;;26.95;24.13;;;24.90;99.90;;;;;;5032937;28;20053;-82
2022/08/17 10:15:10;;;;;;;25.52;22.83;;;24.80;99.90;;;;;;5033656;28;20037;-82
2022/08/17 10:17:49;;;;;;;27.95;23.92;;;24.60;99.90;;;;;;5033587;28;20041;-82
2022/08/17 10:20:30;;;;;;;27.77;23.85;;;24.40;99.90;;;;;;5031641;28;20053;-82
2022/08/17 10:28:57;;;;;;;26.10;22.42;;;24.10;99.90;;;;;;5033843;28;20505;-83
2022/08/17 10:31:31;;;;;;;27.77;23.80;;;24.00;99.90;;;;;;5033968;28;20041;-83
2022/08/17 10:34:05;;;;;;;29.80;25.35;;;24.00;99.90;;;;;;5033702;28;20056;-83
2022/08/17 10:37:09;;;;;;;31.65;25.40;;;24.00;99.90;;;;;;5032860;28;20049;-83
2022/08/17 10:40:12;;;;;;;29.20;24.02;;;24.10;99.90;;;;;;5033788;28;20041;-83
2022/08/17 10:42:52;;;;;;;29.65;25.60;;;24.10;99.90;;;;;;5032765;28;20195;-83
2022/08/17 10:45:44;;;;;;;30.10;25.13;;;24.20;99.90;;;;;;5032393;28;20119;-83
2022/08/17 10:48:11;;;;;;;28.38;23.10;;;24.20;99.90;;;;;;5033115;28;20057;-82
2022/08/17 10:51:09;;;;;;;26.40;21.70;;;24.20;99.90;;;;;;5034320;28;20062;-83
2022/08/17 10:53:34;;;;;;;29.02;23.60;;;24.30;99.90;;;;;;5024464;28;20050;-83
2022/08/17 10:56:12;;;;;;;24.77;21.70;;;24.40;99.90;;;;;;5017122;28;20141;-82
2022/08/17 10:58:54;;;;;;;27.98;22.13;;;24.50;99.90;;;;;;5017685;28;20050;-83
2022/08/17 11:01:32;;;;;;;25.88;21.08;;;24.60;99.90;;;;;;5016540;28;20520;-82
2022/08/17 11:04:08;;;;;;;20.92;18.67;;;24.60;99.90;;;;;;5017958;28;20049;-82
2022/08/17 11:07:00;;;;;;;19.80;16.65;;;24.80;99.90;;;;;;5017516;28;20509;-81
2022/08/17 11:10:05;;;;;;;21.33;18.20;;;24.90;99.90;;;;;;5017507;28;20057;-81
2022/08/17 11:12:48;;;;;;;24.08;18.80;;;25.00;99.90;;;;;;5015754;28;20100;-81
2022/08/17 11:15:40;;;;;;;24.17;18.15;;;25.00;99.90;;;;;;5014741;28;20129;-81
2022/08/17 11:18:51;;;;;;;20.33;15.95;;;25.10;99.90;;;;;;5008201;28;20058;-82
2022/08/17 11:21:51;;;;;;;18.17;14.88;;;25.20;99.90;;;;;;5032273;28;20045;-82
2022/08/17 11:24:25;;;;;;;18.52;13.45;;;25.40;99.90;;;;;;5008477;28;20098;-81
2022/08/17 11:27:03;;;;;;;16.48;12.98;;;25.70;99.90;;;;;;5015550;28;20073;-81
2022/08/17 11:29:44;;;;;;;17.90;11.85;;;26.00;99.90;;;;;;5016766;28;20060;-82
2022/08/17 11:32:29;;;;;;;17.98;10.98;;;26.40;99.90;;;;;;5017065;28;20056;-82
2022/08/17 11:35:10;;;;;;;16.23;11.07;;;27.00;99.90;;;;;;5015922;28;20049;-81
2022/08/17 11:37:54;;;;;;;17.35;10.48;;;27.40;99.90;;;;;;5014009;28;20053;-81
2022/08/17 11:40:58;;;;;;;14.13;9.45;;;27.50;99.90;;;;;;5032758;28;20092;-81
2022/08/17 11:44:03;;;;;;;14.10;10.18;;;27.40;99.90;;;;;;5031703;28;20046;-81
2022/08/17 11:52:42;;;;;;;13.13;9.35;;;27.90;99.90;;;;;;5016636;28;20042;-80
2022/08/17 11:55:09;;;;;;;;;;;28.00;99.90;;;;;;5017285;28;20052;-81
2022/08/17 11:57:40;;;;;;;10.50;8.75;;;28.30;99.90;;;;;;5016712;28;19984;-81
2022/08/17 12:00:27;;;;;;;15.30;9.60;;;28.40;99.90;;;;;;5015891;28;20121;-81
2022/08/17 12:03:25;;;;;;;13.65;9.35;;;28.40;99.90;;;;;;5019673;28;20053;-81
2022/08/17 12:06:16;;;;;;;13.75;10.05;;;28.00;99.90;;;;;;5016899;28;20121;-82
2022/08/17 12:08:49;;;;;;;12.60;10.80;;;27.70;99.90;;;;;;5031441;28;20048;-83
2022/08/17 12:11:47;;;;;;;13.27;11.30;;;27.60;99.90;;;;;;5014578;28;20049;-82
2022/08/17 12:14:19;;;;;;;15.70;11.32;;;27.70;99.90;;;;;;4998313;28;20050;-81
2022/08/17 12:17:00;;;;;;;14.35;12.00;;;27.90;99.90;;;;;;5015883;28;20149;-82
2022/08/17 12:19:28;;;;;;;17.17;11.90;;;27.90;99.90;;;;;;5023107;28;20045;-81
2022/08/17 12:22:00;;;;;;;15.65;11.57;;;27.70;99.90;;;;;;5036002;28;20148;-81
2022/08/17 12:25:01;;;;;;;13.95;11.15;;;27.40;99.90;;;;;;5017788;28;20038;-82
2022/08/17 12:27:32;;;;;;;14.05;9.73;;;27.30;99.90;;;;;;5025512;28;20053;-81
2022/08/17 12:29:58;;;;;;;12.45;10.65;;;27.30;99.90;;;;;;5035044;28;20434;-81
2022/08/17 12:32:31;;;;;;;13.23;9.95;;;27.10;99.90;;;;;;5034467;28;20037;-81
2022/08/17 12:34:57;;;;;;;12.50;9.95;;;27.00;99.90;;;;;;5036030;28;20048;-82
2022/08/17 12:37:30;;;;;;;12.65;9.23;;;26.90;99.90;;;;;;5034427;28;20046;-81
2022/08/17 12:40:04;;;;;;;12.95;8.98;;;27.00;99.90;;;;;;5035758;28;20111;-81
2022/08/17 12:42:35;;;;;;;13.75;9.85;;;26.90;99.90;;;;;;5033960;28;20056;-81
2022/08/17 12:45:01;;;;;;;15.25;10.18;;;26.80;99.90;;;;;;5035452;28;20410;-81
2022/08/17 12:47:28;;;;;;;14.05;11.40;;;26.70;99.90;;;;;;5034880;28;20064;-81
2022/08/17 12:50:07;;;;;;;14.35;11.20;;;26.60;99.90;;;;;;5035592;28;20065;-81
2022/08/17 12:52:38;;;;;;;16.63;11.50;;;26.40;99.90;;;;;;5015284;28;20092;-81
2022/08/17 12:55:21;;;;;;;16.02;11.55;;;26.30;99.90;;;;;;5014133;28;20042;-81
2022/08/17 12:57:53;;;;;;;11.77;10.05;;;26.20;99.90;;;;;;5015129;28;20057;-81
2022/08/17 13:00:40;;;;;;;14.05;9.88;;;26.10;99.90;;;;;;5015174;28;20053;-81
2022/08/17 13:03:21;;;;;;;14.25;10.43;;;26.00;99.90;;;;;;5014937;28;20038;-81
2022/08/17 13:06:06;;;;;;;15.57;10.32;;;25.90;99.90;;;;;;5014621;28;20195;-81
2022/08/17 13:08:36;;;;;;;15.32;9.48;;;25.90;99.90;;;;;;5015074;28;20042;-81
2022/08/17 13:11:08;;;;;;;15.13;10.02;;;25.90;99.90;;;;;;5015100;28;20052;-81
2022/08/17 13:13:42;;;;;;;13.68;10.40;;;25.80;99.90;;;;;;5012553;28;20049;-81
2022/08/17 13:16:16;;;;;;;14.10;10.70;;;25.80;99.90;;;;;;5014532;28;20054;-81
2022/08/17 13:18:50;;;;;;;13.98;10.38;;;25.70;99.90;;;;;;5014648;28;20046;-82
2022/08/17 13:21:21;;;;;;;14.98;10.75;;;25.70;99.90;;;;;;5013504;28;20099;-81
2022/08/17 13:24:09;;;;;;;12.70;10.48;;;25.70;99.90;;;;;;5012774;28;20050;-82
2022/08/17 13:26:41;;;;;;;13.27;9.10;;;25.60;99.90;;;;;;5014281;28;20073;-81
2022/08/17 13:29:22;;;;;;;12.82;9.10;;;25.50;99.90;;;;;;5013557;28;20487;-81
2022/08/17 13:32:12;;;;;;;16.38;9.50;;;25.60;99.90;;;;;;5029836;28;20046;-82
2022/08/17 13:34:44;;;;;;;12.15;9.23;;;25.50;99.90;;;;;;5012585;28;20129;-81